Time;durP1;ratioP1;P1;durP2;ratioP2;P2;SDS_P1;SDS_P2;PMS_P1;PMS_P2;Temp;Humidity;BMP_temperature;BMP_pressure;BME280_temperature;BME280_humidity;BME280_pressure;Samples;Min_cycle;Max_cycle;Signal;HPM_P1;HPM_P2
2022/07/28 00:01:38;;;;;;;3.93;1.20;;;14.90;99.90;;;;;;5052833;28;20236;-59
2022/07/28 00:04:08;;;;;;;3.63;1.50;;;14.80;99.90;;;;;;5053379;28;20631;-60
2022/07/28 00:06:36;;;;;;;3.33;1.20;;;14.80;99.90;;;;;;5053239;28;20236;-61
2022/07/28 00:09:04;;;;;;;3.07;1.60;;;14.70;99.90;;;;;;5057290;28;20305;-61
2022/07/28 00:11:32;;;;;;;2.70;1.30;;;14.60;99.90;;;;;;5052978;28;20255;-60
2022/07/28 00:14:17;;;;;;;3.23;1.40;;;14.60;99.90;;;;;;5053031;28;20236;-61
2022/07/28 00:16:45;;;;;;;3.77;1.60;;;14.60;99.90;;;;;;5052816;28;20255;-60
2022/07/28 00:19:15;;;;;;;4.00;1.30;;;14.60;99.90;;;;;;5053236;28;20234;-60
2022/07/28 00:21:43;;;;;;;2.87;1.30;;;14.60;99.90;;;;;;5052947;28;20327;-60
2022/07/28 00:24:12;;;;;;;1.90;1.10;;;14.50;99.90;;;;;;5052457;28;20224;-60
2022/07/28 00:26:40;;;;;;;2.97;1.20;;;14.50;99.90;;;;;;5052962;28;20318;-60
2022/07/28 00:29:08;;;;;;;3.40;1.33;;;14.50;99.90;;;;;;5053170;28;20684;-60
2022/07/28 00:31:37;;;;;;;2.40;1.10;;;14.40;99.90;;;;;;5052356;28;20239;-60
2022/07/28 00:34:05;;;;;;;2.50;0.90;;;14.40;99.90;;;;;;5052966;28;20300;-60
2022/07/28 00:36:35;;;;;;;2.50;1.20;;;14.40;99.90;;;;;;5052733;28;20220;-60
2022/07/28 00:39:05;;;;;;;5.37;1.40;;;14.40;99.90;;;;;;5052748;28;20250;-60
2022/07/28 00:41:35;;;;;;;2.63;1.20;;;14.30;99.90;;;;;;5052401;28;20277;-60
2022/07/28 00:44:06;;;;;;;2.37;1.40;;;14.30;99.90;;;;;;5053057;28;20573;-60
2022/07/28 00:46:35;;;;;;;2.03;1.17;;;14.20;99.90;;;;;;5052848;28;20221;-60
2022/07/28 00:49:04;;;;;;;2.43;1.20;;;14.20;99.90;;;;;;5052784;28;20238;-60
2022/07/28 00:51:34;;;;;;;3.13;1.37;;;14.20;99.90;;;;;;5052073;28;20227;-60
2022/07/28 00:54:03;;;;;;;2.83;1.37;;;14.20;99.90;;;;;;5052358;28;20817;-60
2022/07/28 00:56:33;;;;;;;2.77;1.30;;;14.30;99.90;;;;;;5052717;28;20228;-60
2022/07/28 00:59:02;;;;;;;1.97;1.20;;;14.20;99.90;;;;;;5052866;28;20230;-60
2022/07/28 01:01:30;;;;;;;1.97;1.30;;;14.20;99.90;;;;;;5052278;28;20241;-60
2022/07/28 01:04:01;;;;;;;3.53;1.90;;;14.20;99.90;;;;;;5052686;28;20301;-60
2022/07/28 01:06:48;;;;;;;2.80;1.30;;;14.20;99.90;;;;;;5052613;28;20687;-60
2022/07/28 01:09:33;;;;;;;2.03;1.33;;;14.30;99.90;;;;;;5052146;28;20238;-60
2022/07/28 01:12:07;;;;;;;4.47;1.20;;;14.30;99.90;;;;;;5052953;28;20711;-61
2022/07/28 01:14:39;;;;;;;4.73;1.47;;;14.30;99.90;;;;;;5052520;28;20265;-60
2022/07/28 01:17:13;;;;;;;3.97;1.50;;;14.30;99.90;;;;;;5053718;28;20234;-60
2022/07/28 01:19:47;;;;;;;3.17;1.60;;;14.30;99.90;;;;;;5056310;28;20228;-60
2022/07/28 01:22:22;;;;;;;3.50;1.37;;;14.30;99.90;;;;;;5056297;28;20681;-60
2022/07/28 01:24:59;;;;;;;2.40;1.30;;;14.20;99.90;;;;;;5056029;28;20281;-60
2022/07/28 01:27:42;;;;;;;7.30;1.70;;;14.30;99.90;;;;;;5056187;28;20688;-60
2022/07/28 01:30:26;;;;;;;2.80;1.43;;;14.30;99.90;;;;;;5055968;28;20740;-56
2022/07/28 01:33:12;;;;;;;3.87;1.97;;;14.20;99.90;;;;;;5056130;28;20227;-61
2022/07/28 01:35:44;;;;;;;2.63;1.40;;;14.30;99.90;;;;;;5056201;28;20699;-61
2022/07/28 01:38:14;;;;;;;3.47;2.00;;;14.20;99.90;;;;;;5056275;28;20220;-61
2022/07/28 01:40:45;;;;;;;2.87;1.50;;;14.20;99.90;;;;;;5055783;28;20683;-61
2022/07/28 01:43:24;;;;;;;4.23;1.30;;;14.20;99.90;;;;;;5055941;28;20226;-61
2022/07/28 01:45:56;;;;;;;3.33;1.60;;;14.20;99.90;;;;;;5055937;28;20231;-61
2022/07/28 01:48:27;;;;;;;4.23;1.47;;;14.20;99.90;;;;;;5055217;28;20223;-60
2022/07/28 01:50:57;;;;;;;2.30;1.40;;;14.20;99.90;;;;;;5055763;28;20718;-61
2022/07/28 01:53:26;;;;;;;3.33;1.47;;;14.20;99.90;;;;;;5055517;28;20240;-60
2022/07/28 01:55:56;;;;;;;2.87;1.40;;;14.20;99.90;;;;;;5055727;28;20234;-61
2022/07/28 01:58:25;;;;;;;3.60;1.80;;;14.10;99.90;;;;;;5055802;28;20314;-61
2022/07/28 02:00:56;;;;;;;3.23;1.70;;;14.20;99.90;;;;;;5055231;28;20246;-61
2022/07/28 02:03:28;;;;;;;3.90;1.50;;;14.10;99.90;;;;;;5055477;28;20251;-61
2022/07/28 02:06:01;;;;;;;2.27;1.37;;;14.10;99.90;;;;;;5055730;28;20593;-61
2022/07/28 02:08:31;;;;;;;3.10;1.40;;;14.10;99.90;;;;;;5055367;28;20238;-60
2022/07/28 02:13:49;;;;;;;1.87;1.30;;;14.10;99.90;;;;;;5035298;28;20286;-61
2022/07/28 02:16:22;;;;;;;2.73;1.47;;;14.10;99.90;;;;;;5044497;28;20736;-61
2022/07/28 02:18:52;;;;;;;3.93;1.50;;;14.10;99.90;;;;;;5055192;28;20684;-61
2022/07/28 02:21:23;;;;;;;4.20;1.50;;;14.10;99.90;;;;;;5055167;28;20275;-61
2022/07/28 02:23:53;;;;;;;2.83;1.47;;;14.10;99.90;;;;;;5054629;28;20219;-61
2022/07/28 02:26:28;;;;;;;2.47;1.30;;;14.10;99.90;;;;;;5055257;28;20224;-61
2022/07/28 02:28:59;;;;;;;3.60;1.60;;;14.10;99.90;;;;;;5055159;28;20590;-61
2022/07/28 02:31:34;;;;;;;3.17;1.93;;;14.10;99.90;;;;;;5054139;28;20289;-61
2022/07/28 02:34:07;;;;;;;2.63;1.40;;;14.10;99.90;;;;;;5054265;28;20222;-61
2022/07/28 02:36:40;;;;;;;4.57;2.00;;;14.10;99.90;;;;;;5055074;28;20318;-60
2022/07/28 02:39:17;;;;;;;3.43;1.57;;;14.10;99.90;;;;;;5058919;28;20247;-61
2022/07/28 02:41:47;;;;;;;2.90;1.60;;;14.10;99.90;;;;;;5054860;28;20322;-61
2022/07/28 02:44:20;;;;;;;2.10;1.60;;;14.10;99.90;;;;;;5054537;28;20303;-61
2022/07/28 02:46:54;;;;;;;2.90;1.37;;;14.10;99.90;;;;;;5054746;28;20594;-61
2022/07/28 02:49:28;;;;;;;3.60;1.50;;;14.10;99.90;;;;;;5054464;28;20251;-61
2022/07/28 02:51:58;;;;;;;5.53;1.80;;;14.10;99.90;;;;;;5054794;28;20212;-61
2022/07/28 02:54:27;;;;;;;4.10;1.73;;;14.10;99.90;;;;;;5048324;28;20708;-60
2022/07/28 02:56:57;;;;;;;1.90;1.40;;;14.10;99.90;;;;;;5054553;28;20232;-61
2022/07/28 02:59:27;;;;;;;3.70;1.60;;;14.10;99.90;;;;;;5054609;28;20326;-60
2022/07/28 03:01:57;;;;;;;3.97;1.80;;;14.10;99.90;;;;;;5054286;28;20324;-61
2022/07/28 03:07:13;;;;;;;3.63;1.50;;;14.00;99.90;;;;;;5054257;28;20688;-61
2022/07/28 03:09:42;;;;;;;4.93;1.80;;;14.10;99.90;;;;;;5050259;28;20703;-61
2022/07/28 03:12:11;;;;;;;1.97;1.40;;;14.10;99.90;;;;;;5054568;28;20286;-61
2022/07/28 03:14:39;;;;;;;5.10;1.60;;;14.20;99.90;;;;;;5054197;28;20216;-61
2022/07/28 03:17:09;;;;;;;4.93;1.60;;;14.10;99.90;;;;;;5053831;28;20224;-61
2022/07/28 03:19:37;;;;;;;4.07;1.80;;;14.10;99.90;;;;;;5053676;28;20236;-60
2022/07/28 03:22:06;;;;;;;4.77;1.50;;;14.10;99.90;;;;;;5053725;28;20235;-61
2022/07/28 03:24:41;;;;;;;5.07;1.57;;;14.10;99.90;;;;;;5058032;28;20258;-61
2022/07/28 03:27:17;;;;;;;4.57;1.80;;;14.10;99.90;;;;;;5034101;28;20330;-61
2022/07/28 03:29:49;;;;;;;2.80;1.53;;;14.10;99.90;;;;;;5033737;28;20273;-61
2022/07/28 03:32:22;;;;;;;5.10;1.87;;;14.20;99.90;;;;;;5033645;28;20267;-61
2022/07/28 03:34:51;;;;;;;2.23;1.50;;;14.10;99.90;;;;;;5034206;28;20255;-61
2022/07/28 03:37:25;;;;;;;1.87;1.40;;;14.10;99.90;;;;;;5034812;28;20221;-61
2022/07/28 03:39:57;;;;;;;4.33;1.90;;;14.10;99.90;;;;;;5053162;28;20254;-61
2022/07/28 03:42:26;;;;;;;3.37;1.60;;;14.10;99.90;;;;;;5053989;28;20314;-61
2022/07/28 03:44:55;;;;;;;3.27;1.50;;;14.20;99.90;;;;;;5053532;28;20281;-61
2022/07/28 03:47:25;;;;;;;4.37;1.87;;;14.20;99.90;;;;;;5053144;28;20306;-61
2022/07/28 03:49:53;;;;;;;4.73;1.77;;;14.20;99.90;;;;;;5053571;28;20319;-61
2022/07/28 03:52:21;;;;;;;5.43;2.03;;;14.10;99.90;;;;;;5056522;28;20243;-61
2022/07/28 03:54:53;;;;;;;3.23;1.73;;;14.10;99.90;;;;;;5055421;28;20619;-61
2022/07/28 03:57:22;;;;;;;2.40;1.70;;;14.10;99.90;;;;;;5033533;28;20587;-62
2022/07/28 03:59:51;;;;;;;4.43;1.60;;;14.10;99.90;;;;;;5033696;28;20256;-61
2022/07/28 04:02:19;;;;;;;3.43;1.67;;;14.00;99.90;;;;;;5032992;28;20236;-61
2022/07/28 04:04:48;;;;;;;3.27;1.83;;;13.90;99.90;;;;;;5033438;28;20235;-62
2022/07/28 04:07:16;;;;;;;2.20;1.50;;;13.90;99.90;;;;;;5034300;28;20692;-61
2022/07/28 04:09:44;;;;;;;3.57;1.57;;;13.90;99.90;;;;;;5056444;28;20380;-61
2022/07/28 04:12:13;;;;;;;4.07;1.67;;;13.90;99.90;;;;;;5053122;28;20323;-61
2022/07/28 04:14:41;;;;;;;4.83;1.93;;;14.00;99.90;;;;;;5053371;28;20234;-61
2022/07/28 04:17:09;;;;;;;3.47;1.90;;;14.10;99.90;;;;;;5053044;28;20668;-61
2022/07/28 04:19:37;;;;;;;6.73;2.17;;;14.10;99.90;;;;;;5052870;28;20224;-61
2022/07/28 04:22:07;;;;;;;3.63;1.87;;;14.10;99.90;;;;;;5053766;28;20212;-61
2022/07/28 04:24:35;;;;;;;1.97;1.57;;;14.20;99.90;;;;;;5057417;28;20310;-61
2022/07/28 04:27:03;;;;;;;3.67;1.70;;;14.20;99.90;;;;;;5052880;28;20270;-61
2022/07/28 04:29:31;;;;;;;4.50;1.67;;;14.20;99.90;;;;;;5052648;28;20227;-61
2022/07/28 04:32:00;;;;;;;3.57;1.97;;;14.20;99.90;;;;;;5052413;28;20274;-62
2022/07/28 04:34:28;;;;;;;3.23;1.50;;;14.30;99.90;;;;;;5052891;28;20228;-61
2022/07/28 04:36:56;;;;;;;4.37;1.60;;;14.30;99.90;;;;;;5052784;28;20334;-61
2022/07/28 04:39:25;;;;;;;4.67;1.60;;;14.30;99.90;;;;;;5056926;28;20225;-60
2022/07/28 04:41:53;;;;;;;3.87;1.60;;;14.40;99.90;;;;;;5052871;28;20226;-62
2022/07/28 04:44:21;;;;;;;3.07;1.60;;;14.40;99.90;;;;;;5052954;28;20377;-61
2022/07/28 04:46:50;;;;;;;2.90;1.70;;;14.50;99.90;;;;;;5052876;28;20266;-62
2022/07/28 04:49:18;;;;;;;3.90;1.60;;;14.40;99.90;;;;;;5052557;28;20226;-62
2022/07/28 04:51:49;;;;;;;3.90;1.57;;;14.50;99.90;;;;;;5055318;28;20666;-62
2022/07/28 04:54:17;;;;;;;5.43;1.40;;;14.50;99.90;;;;;;5062547;28;20263;-61
2022/07/28 04:56:54;;;;;;;3.13;1.40;;;14.60;99.90;;;;;;5056916;28;20292;-62
2022/07/28 04:59:23;;;;;;;3.13;1.57;;;14.60;99.90;;;;;;5056565;28;20750;-61
2022/07/28 05:01:52;;;;;;;4.27;1.60;;;14.70;99.90;;;;;;5056374;28;20236;-62
2022/07/28 05:04:20;;;;;;;3.40;1.47;;;14.80;99.90;;;;;;5056470;28;20232;-62
2022/07/28 05:06:48;;;;;;;3.23;1.57;;;14.80;99.90;;;;;;5056282;28;20741;-62
2022/07/28 05:09:16;;;;;;;1.97;1.50;;;14.90;99.90;;;;;;5060462;28;20227;-62
2022/07/28 05:11:44;;;;;;;3.17;1.40;;;14.90;99.90;;;;;;5056375;28;20250;-62
2022/07/28 05:14:14;;;;;;;4.27;1.57;;;14.90;99.90;;;;;;5056613;28;20752;-62
2022/07/28 05:16:43;;;;;;;5.80;1.80;;;15.00;99.90;;;;;;5056146;28;20281;-62
2022/07/28 05:19:12;;;;;;;3.43;1.73;;;15.10;99.90;;;;;;5056513;28;20580;-61
2022/07/28 05:21:40;;;;;;;3.43;1.40;;;15.00;99.90;;;;;;5056054;28;20239;-62
2022/07/28 05:24:09;;;;;;;6.07;1.60;;;15.00;99.90;;;;;;5062454;28;20303;-62
2022/07/28 05:26:37;;;;;;;2.07;1.50;;;15.00;99.90;;;;;;5055969;28;20259;-63
2022/07/28 05:29:06;;;;;;;3.93;1.50;;;15.00;99.90;;;;;;5056135;28;20307;-61
2022/07/28 05:31:35;;;;;;;5.27;1.67;;;15.00;99.90;;;;;;5055659;28;20228;-62
2022/07/28 05:34:04;;;;;;;3.80;1.50;;;15.00;99.90;;;;;;5056335;28;20227;-62
2022/07/28 05:36:33;;;;;;;5.43;1.60;;;15.10;99.90;;;;;;5055482;28;20326;-62
2022/07/28 05:39:02;;;;;;;2.47;1.40;;;15.10;99.90;;;;;;5049823;28;20288;-62
2022/07/28 05:41:30;;;;;;;2.83;1.50;;;15.10;99.90;;;;;;5054396;28;20230;-62
2022/07/28 05:44:00;;;;;;;3.80;1.50;;;15.20;99.90;;;;;;5055763;28;20223;-60
2022/07/28 05:46:28;;;;;;;3.57;1.80;;;15.20;99.90;;;;;;5055914;28;20251;-62
2022/07/28 05:48:57;;;;;;;2.03;1.43;;;15.20;99.90;;;;;;5055734;28;20234;-61
2022/07/28 05:51:25;;;;;;;4.57;1.70;;;15.20;99.90;;;;;;5055591;28;20270;-62
2022/07/28 05:53:53;;;;;;;2.47;1.53;;;15.30;99.90;;;;;;5061756;28;20349;-62
2022/07/28 05:56:21;;;;;;;3.67;1.70;;;15.30;99.90;;;;;;5055451;28;20220;-62
2022/07/28 05:58:50;;;;;;;4.03;1.43;;;15.40;99.90;;;;;;5057220;28;20319;-63
2022/07/28 06:01:18;;;;;;;4.47;1.50;;;15.50;99.90;;;;;;5056846;28;20734;-62
2022/07/28 06:03:48;;;;;;;4.30;1.70;;;15.50;99.90;;;;;;5058126;28;20740;-62
2022/07/28 06:06:37;;;;;;;3.93;1.47;;;15.70;99.90;;;;;;5057412;28;20710;-63
2022/07/28 06:09:05;;;;;;;3.47;1.63;;;15.70;99.90;;;;;;5061706;28;20699;-64
2022/07/28 06:11:33;;;;;;;3.70;1.57;;;15.80;99.90;;;;;;5057848;28;20579;-62
2022/07/28 06:14:01;;;;;;;4.73;1.43;;;15.90;99.90;;;;;;5056564;28;20232;-62
2022/07/28 06:16:30;;;;;;;5.10;1.60;;;15.90;99.90;;;;;;5042133;28;20716;-62
2022/07/28 06:18:58;;;;;;;2.30;1.60;;;15.90;99.90;;;;;;5035919;28;20225;-62
2022/07/28 06:21:26;;;;;;;3.47;1.20;;;16.00;99.90;;;;;;5035298;28;20652;-61
2022/07/28 06:23:55;;;;;;;5.80;1.47;;;16.00;99.90;;;;;;5059989;28;20258;-62
2022/07/28 06:26:23;;;;;;;5.03;1.37;;;16.00;99.90;;;;;;5055131;28;20227;-62
2022/07/28 06:28:52;;;;;;;2.60;1.33;;;16.00;99.90;;;;;;5055363;28;20323;-62
2022/07/28 06:31:20;;;;;;;7.27;1.57;;;16.10;99.90;;;;;;5054787;28;20326;-62
2022/07/28 06:33:48;;;;;;;3.50;1.40;;;16.10;99.90;;;;;;5054731;28;20679;-62
2022/07/28 06:36:16;;;;;;;5.10;1.27;;;16.20;99.90;;;;;;5054174;28;20220;-62
2022/07/28 06:38:45;;;;;;;5.23;1.30;;;16.20;99.90;;;;;;5058752;28;20290;-62
2022/07/28 06:41:14;;;;;;;1.80;1.10;;;16.40;99.90;;;;;;5054741;28;20259;-62
2022/07/28 06:43:43;;;;;;;5.50;1.40;;;16.40;99.90;;;;;;5054539;28;20293;-62
2022/07/28 06:46:17;;;;;;;6.10;1.50;;;16.50;99.90;;;;;;5054987;28;20725;-62
2022/07/28 06:48:45;;;;;;;2.97;1.30;;;16.50;99.90;;;;;;5054330;28;20303;-62
2022/07/28 06:51:17;;;;;;;4.77;1.30;;;16.60;99.90;;;;;;5052666;28;20234;-62
2022/07/28 06:53:47;;;;;;;6.23;1.57;;;16.70;99.90;;;;;;5055220;28;20711;-62
2022/07/28 06:56:18;;;;;;;2.97;1.40;;;16.80;99.90;;;;;;5054114;28;20612;-61
2022/07/28 06:58:48;;;;;;;5.57;1.50;;;16.80;99.90;;;;;;5053049;28;20696;-62
2022/07/28 07:01:16;;;;;;;4.53;1.37;;;16.80;99.90;;;;;;5052992;28;20255;-62
2022/07/28 07:03:45;;;;;;;3.50;1.50;;;16.90;99.90;;;;;;5054335;28;20216;-62
2022/07/28 07:06:13;;;;;;;3.10;1.10;;;16.90;99.90;;;;;;5054589;28;20245;-62
2022/07/28 07:08:41;;;;;;;4.37;1.23;;;17.00;99.90;;;;;;5054314;28;20592;-62
2022/07/28 07:11:10;;;;;;;3.50;1.20;;;17.00;99.90;;;;;;5046371;28;20374;-62
2022/07/28 07:13:40;;;;;;;2.60;1.13;;;17.00;99.90;;;;;;5053976;28;20599;-62
2022/07/28 07:16:08;;;;;;;2.63;1.20;;;17.00;99.90;;;;;;5054027;28;20243;-62
2022/07/28 07:18:36;;;;;;;3.63;1.20;;;17.00;99.90;;;;;;5054128;28;20606;-62
2022/07/28 07:21:04;;;;;;;9.90;1.50;;;17.00;99.90;;;;;;5053985;28;20270;-62
2022/07/28 07:23:34;;;;;;;2.67;1.20;;;17.10;99.90;;;;;;5058480;28;20576;-62
2022/07/28 07:26:02;;;;;;;3.37;1.03;;;17.10;99.90;;;;;;5054341;28;20258;-62
2022/07/28 07:28:33;;;;;;;2.90;1.10;;;17.10;99.90;;;;;;5053677;28;20271;-62
2022/07/28 07:31:02;;;;;;;1.43;0.83;;;17.10;99.90;;;;;;5053367;28;20236;-62
2022/07/28 07:33:31;;;;;;;2.90;0.90;;;17.10;99.90;;;;;;5053507;28;20251;-62
2022/07/28 07:35:59;;;;;;;2.93;0.97;;;17.10;99.90;;;;;;5054034;28;20593;-62
2022/07/28 07:38:27;;;;;;;2.83;1.00;;;17.20;99.90;;;;;;5057579;28;20277;-62
2022/07/28 07:40:56;;;;;;;3.17;1.10;;;17.20;99.90;;;;;;5053863;28;20288;-62
2022/07/28 07:43:24;;;;;;;4.80;1.20;;;17.20;99.90;;;;;;5053819;28;20632;-62
2022/07/28 07:45:53;;;;;;;6.07;1.40;;;17.30;99.90;;;;;;5053744;28;20592;-62
2022/07/28 07:48:23;;;;;;;3.50;1.40;;;17.30;99.90;;;;;;5053823;28;20237;-62
2022/07/28 07:50:51;;;;;;;1.53;1.00;;;17.30;99.90;;;;;;5053451;28;20240;-62
2022/07/28 07:53:21;;;;;;;3.10;1.20;;;17.30;99.90;;;;;;5058348;28;20232;-62
2022/07/28 07:55:50;;;;;;;3.10;1.10;;;17.30;99.90;;;;;;5052761;28;20224;-62
2022/07/28 07:58:18;;;;;;;2.73;1.23;;;17.20;99.90;;;;;;5052967;28;20315;-62
2022/07/28 08:00:46;;;;;;;2.80;1.13;;;17.20;99.90;;;;;;5051983;28;20240;-62
2022/07/28 08:03:15;;;;;;;5.00;1.40;;;17.10;99.90;;;;;;5053472;28;20624;-63
2022/07/28 08:05:54;;;;;;;3.43;1.10;;;17.20;99.90;;;;;;5050640;28;20614;-62
2022/07/28 08:08:23;;;;;;;3.03;0.97;;;17.20;99.90;;;;;;5049110;28;20258;-62
2022/07/28 08:10:51;;;;;;;3.93;1.07;;;17.20;99.90;;;;;;5053111;28;20676;-62
2022/07/28 08:13:21;;;;;;;3.57;1.20;;;17.20;99.90;;;;;;5052742;28;20283;-62
2022/07/28 08:15:50;;;;;;;3.60;1.20;;;17.30;99.90;;;;;;5053344;28;20232;-62
2022/07/28 08:18:19;;;;;;;4.93;1.20;;;17.40;99.90;;;;;;5053313;28;20229;-62
2022/07/28 08:20:47;;;;;;;5.13;1.37;;;17.50;99.90;;;;;;5052452;28;20296;-62
2022/07/28 08:23:16;;;;;;;3.77;1.10;;;17.60;99.90;;;;;;5058894;28;20311;-62
2022/07/28 08:25:52;;;;;;;2.27;1.03;;;17.70;99.90;;;;;;5049378;28;20314;-62
2022/07/28 08:28:21;;;;;;;1.90;1.10;;;17.80;99.90;;;;;;5052128;28;20224;-62
2022/07/28 08:30:49;;;;;;;4.03;1.30;;;17.90;99.90;;;;;;5051432;28;20241;-62
2022/07/28 08:33:20;;;;;;;2.70;1.07;;;18.00;99.90;;;;;;5045711;28;20229;-62
2022/07/28 08:35:49;;;;;;;5.20;0.97;;;18.10;99.90;;;;;;5051973;28;20231;-62
2022/07/28 08:38:18;;;;;;;6.10;1.23;;;18.20;99.90;;;;;;5041623;28;20747;-62
2022/07/28 08:40:50;;;;;;;2.57;1.00;;;18.30;99.90;;;;;;5052741;28;20359;-62
2022/07/28 08:43:30;;;;;;;1.93;1.00;;;18.30;99.90;;;;;;5052919;28;20225;-62
2022/07/28 08:45:59;;;;;;;5.60;1.57;;;18.50;99.90;;;;;;5053134;28;20265;-62
2022/07/28 08:48:30;;;;;;;4.20;1.30;;;18.50;99.90;;;;;;5052939;28;20252;-62
2022/07/28 08:51:02;;;;;;;2.20;1.10;;;18.70;99.90;;;;;;5052786;28;20310;-62
2022/07/28 08:53:34;;;;;;;2.53;1.03;;;18.90;99.90;;;;;;5055344;28;20331;-63
2022/07/28 08:56:05;;;;;;;4.43;1.17;;;19.00;99.90;;;;;;5052107;28;20265;-63
2022/07/28 08:58:35;;;;;;;2.67;0.90;;;19.10;99.90;;;;;;5052279;28;20217;-62
2022/07/28 09:01:06;;;;;;;4.07;1.17;;;19.30;99.90;;;;;;5050890;28;20226;-62
2022/07/28 09:03:35;;;;;;;3.60;1.03;;;19.40;99.90;;;;;;5050857;28;20242;-63
2022/07/28 09:06:03;;;;;;;2.33;0.93;;;19.40;99.90;;;;;;5051670;28;20222;-63
2022/07/28 09:08:33;;;;;;;3.27;1.10;;;19.60;99.90;;;;;;5050864;28;20693;-63
2022/07/28 09:11:02;;;;;;;1.83;1.03;;;19.70;99.90;;;;;;5051933;28;20233;-64
2022/07/28 09:13:30;;;;;;;4.13;1.10;;;19.80;99.90;;;;;;5051696;28;20253;-63
2022/07/28 09:15:59;;;;;;;2.37;0.80;;;20.00;99.90;;;;;;5051649;28;20222;-63
2022/07/28 09:18:27;;;;;;;2.63;0.80;;;20.10;99.90;;;;;;5052410;28;20250;-63
2022/07/28 09:20:56;;;;;;;2.17;1.00;;;20.00;99.90;;;;;;5052106;28;20686;-63
2022/07/28 09:23:24;;;;;;;3.87;1.10;;;20.00;99.90;;;;;;5055680;28;20627;-63
2022/07/28 09:26:13;;;;;;;2.07;0.87;;;20.00;99.90;;;;;;5044325;28;20231;-62
2022/07/28 09:28:49;;;;;;;2.93;1.00;;;20.10;99.90;;;;;;5050137;28;20258;-63
2022/07/28 09:31:17;;;;;;;2.10;0.93;;;20.20;99.90;;;;;;5051993;28;20227;-63
2022/07/28 09:33:59;;;;;;;2.93;1.00;;;20.40;99.90;;;;;;5051873;28;20348;-63
2022/07/28 09:36:28;;;;;;;1.97;1.13;;;20.40;99.90;;;;;;5050136;28;20254;-63
2022/07/28 09:38:57;;;;;;;3.33;0.70;;;20.50;99.90;;;;;;5054229;28;20334;-63
2022/07/28 09:41:27;;;;;;;3.37;0.90;;;20.70;99.90;;;;;;5055741;28;20239;-63
2022/07/28 09:43:55;;;;;;;2.13;0.90;;;20.70;99.90;;;;;;5055696;28;20258;-63
2022/07/28 09:46:25;;;;;;;2.30;0.90;;;20.70;99.90;;;;;;5055827;28;20226;-63
2022/07/28 09:48:58;;;;;;;4.07;1.17;;;20.70;99.90;;;;;;5055458;28;20238;-63
2022/07/28 09:51:28;;;;;;;1.67;0.70;;;20.80;99.90;;;;;;5055312;28;20235;-63
2022/07/28 09:54:08;;;;;;;2.70;0.87;;;20.80;99.90;;;;;;5061212;28;20250;-63
2022/07/28 09:56:38;;;;;;;2.23;0.70;;;21.00;99.90;;;;;;5054903;28;20269;-63
2022/07/28 09:59:07;;;;;;;4.03;1.20;;;21.20;99.90;;;;;;5036017;28;20235;-63
2022/07/28 10:01:51;;;;;;;3.30;1.00;;;21.30;99.90;;;;;;5045167;28;20249;-63
2022/07/28 10:04:30;;;;;;;3.90;1.13;;;21.30;99.90;;;;;;5052507;28;20219;-63
2022/07/28 10:07:06;;;;;;;3.17;0.87;;;21.60;99.90;;;;;;5055798;28;20310;-63
2022/07/28 10:09:34;;;;;;;2.83;0.90;;;21.70;99.90;;;;;;5055592;28;20250;-63
2022/07/28 10:12:20;;;;;;;1.97;0.90;;;21.80;99.90;;;;;;5055568;28;20631;-63
2022/07/28 10:14:50;;;;;;;2.53;0.90;;;22.10;99.90;;;;;;5055660;28;20245;-63
2022/07/28 10:17:27;;;;;;;2.17;0.73;;;22.20;99.90;;;;;;5055343;28;20236;-63
2022/07/28 10:19:59;;;;;;;3.90;1.20;;;22.20;99.90;;;;;;5055572;28;20251;-63
2022/07/28 10:22:31;;;;;;;3.30;1.00;;;22.30;99.90;;;;;;5055749;28;20255;-63
2022/07/28 10:25:02;;;;;;;2.20;1.03;;;22.50;99.90;;;;;;5054721;28;20710;-63
2022/07/28 10:27:32;;;;;;;2.47;0.90;;;22.80;99.90;;;;;;5054286;28;20666;-63
2022/07/28 10:30:03;;;;;;;1.43;0.70;;;23.10;99.90;;;;;;5052086;28;20290;-63
2022/07/28 10:32:38;;;;;;;2.20;0.90;;;23.40;99.90;;;;;;5053509;28;20315;-63
2022/07/28 10:35:09;;;;;;;1.40;0.83;;;23.40;99.90;;;;;;5052622;28;20238;-63
2022/07/28 10:37:41;;;;;;;1.70;0.80;;;23.60;99.90;;;;;;5052489;28;20758;-63
2022/07/28 10:40:11;;;;;;;2.17;0.60;;;23.70;99.90;;;;;;5052860;28;20230;-63
2022/07/28 10:42:41;;;;;;;2.73;0.70;;;24.10;99.90;;;;;;5054744;28;20251;-63
2022/07/28 10:45:10;;;;;;;1.03;0.60;;;24.00;99.90;;;;;;5054602;28;20307;-63
2022/07/28 10:47:39;;;;;;;1.63;0.87;;;23.70;99.90;;;;;;5050867;28;20270;-63
2022/07/28 10:50:08;;;;;;;1.00;0.50;;;23.40;99.90;;;;;;5053407;28;20283;-63
2022/07/28 10:52:38;;;;;;;2.33;0.73;;;23.10;99.90;;;;;;5053802;28;20256;-63
2022/07/28 10:55:27;;;;;;;2.20;0.60;;;23.30;99.90;;;;;;5048639;28;20251;-63
2022/07/28 10:58:11;;;;;;;2.73;1.00;;;23.50;99.90;;;;;;5051142;28;20271;-63
2022/07/28 11:00:46;;;;;;;1.07;0.60;;;24.60;99.90;;;;;;5051689;28;20316;-63
2022/07/28 11:03:38;;;;;;;2.20;0.73;;;25.00;99.90;;;;;;5050604;28;20558;-64
2022/07/28 11:06:27;;;;;;;1.50;0.60;;;25.10;99.90;;;;;;5052001;28;20634;-63
2022/07/28 11:08:56;;;;;;;1.27;0.70;;;25.60;99.90;;;;;;5054736;28;20225;-64
2022/07/28 11:11:44;;;;;;;2.37;0.70;;;26.20;99.90;;;;;;5054191;28;20236;-64
2022/07/28 11:14:35;;;;;;;1.37;0.60;;;25.70;99.90;;;;;;5054564;28;20701;-64
2022/07/28 11:17:18;;;;;;;4.23;0.80;;;25.30;99.90;;;;;;5052969;28;20272;-60
2022/07/28 11:19:56;;;;;;;7.23;0.80;;;24.80;99.90;;;;;;5053337;28;20240;-65
2022/07/28 11:22:44;;;;;;;2.50;0.70;;;24.20;99.90;;;;;;5058517;28;20229;-64
2022/07/28 11:25:15;;;;;;;5.07;0.90;;;23.70;99.90;;;;;;5054161;28;21064;-63
2022/07/28 11:28:03;;;;;;;2.37;0.70;;;23.50;99.90;;;;;;5054202;28;20227;-63
2022/07/28 11:30:53;;;;;;;1.67;0.60;;;23.10;99.90;;;;;;5052683;28;20306;-63
2022/07/28 11:33:23;;;;;;;1.90;0.80;;;23.00;99.90;;;;;;5047560;28;20731;-63
2022/07/28 11:35:57;;;;;;;2.10;0.53;;;22.60;99.90;;;;;;5053666;28;20228;-63
2022/07/28 11:38:27;;;;;;;2.70;0.70;;;22.50;99.90;;;;;;5057556;28;20255;-63
2022/07/28 11:40:56;;;;;;;2.10;0.73;;;22.30;99.90;;;;;;5053597;28;20314;-63
2022/07/28 11:43:34;;;;;;;2.57;0.77;;;22.20;99.90;;;;;;5053218;28;20267;-63
2022/07/28 11:46:24;;;;;;;2.43;0.80;;;22.00;99.90;;;;;;5052785;28;20220;-62
2022/07/28 11:49:18;;;;;;;1.47;0.70;;;21.90;99.90;;;;;;5053814;28;20757;-63
2022/07/28 11:52:09;;;;;;;1.83;0.70;;;21.80;99.90;;;;;;5052701;28;20315;-67
2022/07/28 11:54:39;;;;;;;1.20;0.70;;;21.80;99.90;;;;;;5055024;28;20746;-62
2022/07/28 11:57:10;;;;;;;1.00;0.70;;;21.70;99.90;;;;;;5053268;28;20283;-62
2022/07/28 11:59:42;;;;;;;2.40;0.80;;;21.70;99.90;;;;;;5053500;28;20636;-62
2022/07/28 12:02:24;;;;;;;3.27;0.70;;;21.90;99.90;;;;;;5052614;28;20239;-62
2022/07/28 12:05:11;;;;;;;2.23;0.77;;;21.70;99.90;;;;;;5053457;28;20697;-62
2022/07/28 12:07:45;;;;;;;3.23;0.80;;;21.60;99.90;;;;;;5056450;28;20231;-62
2022/07/28 12:10:32;;;;;;;3.97;0.93;;;21.50;99.90;;;;;;5045810;28;20265;-62
2022/07/28 12:13:27;;;;;;;2.27;0.70;;;21.70;99.90;;;;;;5053215;28;20232;-62
2022/07/28 12:15:55;;;;;;;2.33;1.00;;;22.00;99.90;;;;;;5052688;28;20310;-62
2022/07/28 12:18:24;;;;;;;2.33;0.80;;;21.90;99.90;;;;;;5052300;28;20306;-64
2022/07/28 12:20:53;;;;;;;3.70;0.90;;;22.10;99.90;;;;;;5052334;28;20223;-63
2022/07/28 12:23:31;;;;;;;2.10;0.70;;;22.10;99.90;;;;;;5054728;28;20220;-63
2022/07/28 12:26:28;;;;;;;1.10;0.70;;;22.30;99.90;;;;;;5049075;28;20560;-63
2022/07/28 12:28:59;;;;;;;2.97;0.90;;;22.20;99.90;;;;;;5051437;28;20234;-63
2022/07/28 12:31:31;;;;;;;1.70;0.60;;;22.10;99.90;;;;;;5052382;28;20331;-63
2022/07/28 12:34:04;;;;;;;1.27;0.60;;;22.30;99.90;;;;;;5052942;28;20306;-63
2022/07/28 12:36:33;;;;;;;3.37;0.80;;;22.30;99.90;;;;;;5052954;28;20326;-63
2022/07/28 12:39:04;;;;;;;1.80;0.70;;;22.50;99.90;;;;;;5052920;28;20288;-63
2022/07/28 12:41:39;;;;;;;1.80;0.70;;;22.80;99.90;;;;;;5051913;28;20277;-63
2022/07/28 12:44:08;;;;;;;2.37;0.87;;;23.20;99.90;;;;;;5052917;28;20264;-63
2022/07/28 12:46:37;;;;;;;2.73;0.60;;;23.20;99.90;;;;;;5051216;28;20255;-62
2022/07/28 12:49:20;;;;;;;2.20;0.87;;;23.40;99.90;;;;;;5049831;28;20702;-63
2022/07/28 12:51:48;;;;;;;2.43;0.83;;;23.40;99.90;;;;;;5032672;28;20233;-61
2022/07/28 12:54:16;;;;;;;1.93;0.60;;;23.80;99.90;;;;;;5056881;28;20244;-63
2022/07/28 12:56:46;;;;;;;1.80;0.70;;;23.90;99.90;;;;;;5051792;28;20239;-63
2022/07/28 12:59:17;;;;;;;1.80;0.60;;;24.30;99.90;;;;;;5052919;28;20312;-63
2022/07/28 13:01:50;;;;;;;1.20;0.60;;;24.60;99.90;;;;;;5035492;28;20268;-63
2022/07/28 13:04:42;;;;;;;2.27;0.67;;;24.20;99.90;;;;;;5032975;28;20316;-61
2022/07/28 13:07:12;;;;;;;4.03;1.00;;;24.10;99.90;;;;;;5032986;28;20744;-63
2022/07/28 13:09:45;;;;;;;1.40;0.60;;;24.00;99.90;;;;;;5036599;28;20228;-63
2022/07/28 13:12:29;;;;;;;2.03;0.90;;;23.80;99.90;;;;;;5017827;28;20223;-64
2022/07/28 13:14:59;;;;;;;2.90;0.77;;;23.50;99.90;;;;;;5036396;28;20256;-64
2022/07/28 13:17:30;;;;;;;2.93;0.90;;;23.50;99.90;;;;;;5035805;28;20229;-64